sensor_id;sensor_type;location;lat;lon;timestamp;P1;durP1;ratioP1;P2;durP2;ratioP2
6249;SDS011;3158;52.148;11.568;2022-12-07T00:02:54;14.27;;;6.53;;
6249;SDS011;3158;52.148;11.568;2022-12-07T00:07:56;11.02;;;6.15;;
6249;SDS011;3158;52.148;11.568;2022-12-07T00:12:57;10.13;;;5.57;;
6249;SDS011;3158;52.148;11.568;2022-12-07T00:17:58;12.43;;;6.65;;
6249;SDS011;3158;52.148;11.568;2022-12-07T00:22:59;16.33;;;6.97;;
6249;SDS011;3158;52.148;11.568;2022-12-07T00:28:00;14.98;;;7.32;;
6249;SDS011;3158;52.148;11.568;2022-12-07T00:33:01;13.37;;;7.50;;
6249;SDS011;3158;52.148;11.568;2022-12-07T00:38:02;13.30;;;6.65;;
6249;SDS011;3158;52.148;11.568;2022-12-07T00:43:03;11.73;;;5.57;;
6249;SDS011;3158;52.148;11.568;2022-12-07T00:48:04;12.38;;;6.30;;
6249;SDS011;3158;52.148;11.568;2022-12-07T00:53:05;17.60;;;6.88;;
6249;SDS011;3158;52.148;11.568;2022-12-07T00:58:06;16.35;;;7.32;;
6249;SDS011;3158;52.148;11.568;2022-12-07T01:03:09;11.05;;;5.97;;
6249;SDS011;3158;52.148;11.568;2022-12-07T01:08:10;13.07;;;6.13;;
6249;SDS011;3158;52.148;11.568;2022-12-07T01:13:11;11.45;;;5.93;;
6249;SDS011;3158;52.148;11.568;2022-12-07T01:18:12;11.35;;;5.57;;
6249;SDS011;3158;52.148;11.568;2022-12-07T01:23:13;13.55;;;5.18;;
6249;SDS011;3158;52.148;11.568;2022-12-07T01:28:14;11.15;;;6.00;;
6249;SDS011;3158;52.148;11.568;2022-12-07T01:33:15;11.38;;;7.13;;
6249;SDS011;3158;52.148;11.568;2022-12-07T01:38:16;9.68;;;6.20;;
6249;SDS011;3158;52.148;11.568;2022-12-07T01:43:17;8.80;;;5.80;;
6249;SDS011;3158;52.148;11.568;2022-12-07T01:48:21;13.70;;;6.70;;
6249;SDS011;3158;52.148;11.568;2022-12-07T01:53:24;13.80;;;6.85;;
6249;SDS011;3158;52.148;11.568;2022-12-07T01:58:25;14.50;;;7.07;;
6249;SDS011;3158;52.148;11.568;2022-12-07T02:03:45;12.50;;;7.22;;
6249;SDS011;3158;52.148;11.568;2022-12-07T02:08:46;13.13;;;6.78;;
6249;SDS011;3158;52.148;11.568;2022-12-07T02:13:47;10.07;;;6.93;;
6249;SDS011;3158;52.148;11.568;2022-12-07T02:34:22;15.18;;;8.23;;
6249;SDS011;3158;52.148;11.568;2022-12-07T02:39:48;17.70;;;7.30;;
6249;SDS011;3158;52.148;11.568;2022-12-07T02:44:47;15.85;;;7.30;;
6249;SDS011;3158;52.148;11.568;2022-12-07T02:49:48;16.02;;;7.28;;
6249;SDS011;3158;52.148;11.568;2022-12-07T02:54:50;17.95;;;8.20;;
6249;SDS011;3158;52.148;11.568;2022-12-07T03:05:08;13.85;;;7.35;;
6249;SDS011;3158;52.148;11.568;2022-12-07T03:10:22;16.50;;;7.63;;
6249;SDS011;3158;52.148;11.568;2022-12-07T03:20:27;19.98;;;7.60;;
6249;SDS011;3158;52.148;11.568;2022-12-07T03:25:29;21.40;;;9.40;;
6249;SDS011;3158;52.148;11.568;2022-12-07T03:30:39;18.33;;;9.10;;
6249;SDS011;3158;52.148;11.568;2022-12-07T03:35:43;13.07;;;6.78;;
6249;SDS011;3158;52.148;11.568;2022-12-07T03:40:57;15.77;;;8.00;;
6249;SDS011;3158;52.148;11.568;2022-12-07T03:51:13;12.63;;;7.47;;
6249;SDS011;3158;52.148;11.568;2022-12-07T03:56:18;14.00;;;8.05;;
6249;SDS011;3158;52.148;11.568;2022-12-07T04:01:20;13.82;;;7.65;;
6249;SDS011;3158;52.148;11.568;2022-12-07T04:06:21;15.73;;;8.07;;
6249;SDS011;3158;52.148;11.568;2022-12-07T04:11:22;13.27;;;8.05;;
6249;SDS011;3158;52.148;11.568;2022-12-07T04:16:23;19.80;;;8.57;;
6249;SDS011;3158;52.148;11.568;2022-12-07T04:21:24;16.20;;;8.63;;
6249;SDS011;3158;52.148;11.568;2022-12-07T04:26:25;14.13;;;8.30;;
6249;SDS011;3158;52.148;11.568;2022-12-07T04:31:26;13.10;;;8.38;;
6249;SDS011;3158;52.148;11.568;2022-12-07T04:36:27;14.63;;;8.02;;
6249;SDS011;3158;52.148;11.568;2022-12-07T04:41:28;13.18;;;8.40;;
6249;SDS011;3158;52.148;11.568;2022-12-07T04:46:30;17.00;;;9.35;;
6249;SDS011;3158;52.148;11.568;2022-12-07T04:51:32;14.20;;;9.15;;
6249;SDS011;3158;52.148;11.568;2022-12-07T04:56:33;17.23;;;8.60;;
6249;SDS011;3158;52.148;11.568;2022-12-07T05:01:35;18.70;;;10.23;;
6249;SDS011;3158;52.148;11.568;2022-12-07T05:06:36;18.02;;;9.43;;
6249;SDS011;3158;52.148;11.568;2022-12-07T05:11:37;15.68;;;9.07;;
6249;SDS011;3158;52.148;11.568;2022-12-07T05:16:38;12.25;;;8.63;;
6249;SDS011;3158;52.148;11.568;2022-12-07T05:21:40;12.57;;;8.45;;
6249;SDS011;3158;52.148;11.568;2022-12-07T05:26:41;14.85;;;8.60;;
6249;SDS011;3158;52.148;11.568;2022-12-07T05:31:43;15.35;;;8.55;;
6249;SDS011;3158;52.148;11.568;2022-12-07T05:36:44;16.35;;;7.88;;
6249;SDS011;3158;52.148;11.568;2022-12-07T05:41:45;14.10;;;7.85;;
6249;SDS011;3158;52.148;11.568;2022-12-07T05:47:05;14.05;;;7.38;;
6249;SDS011;3158;52.148;11.568;2022-12-07T05:52:07;16.35;;;8.45;;
6249;SDS011;3158;52.148;11.568;2022-12-07T05:57:08;13.30;;;7.68;;
6249;SDS011;3158;52.148;11.568;2022-12-07T06:02:10;11.00;;;6.60;;
6249;SDS011;3158;52.148;11.568;2022-12-07T06:07:13;14.55;;;9.15;;
6249;SDS011;3158;52.148;11.568;2022-12-07T06:12:14;15.27;;;8.23;;
6249;SDS011;3158;52.148;11.568;2022-12-07T06:17:33;14.27;;;7.50;;
6249;SDS011;3158;52.148;11.568;2022-12-07T06:22:35;15.20;;;7.20;;
6249;SDS011;3158;52.148;11.568;2022-12-07T06:27:36;11.02;;;6.85;;
6249;SDS011;3158;52.148;11.568;2022-12-07T06:32:37;11.35;;;5.70;;
6249;SDS011;3158;52.148;11.568;2022-12-07T06:37:38;10.45;;;5.28;;
6249;SDS011;3158;52.148;11.568;2022-12-07T06:42:39;7.15;;;4.80;;
6249;SDS011;3158;52.148;11.568;2022-12-07T06:47:40;8.05;;;5.07;;
6249;SDS011;3158;52.148;11.568;2022-12-07T06:52:41;6.30;;;4.00;;
6249;SDS011;3158;52.148;11.568;2022-12-07T06:57:42;8.40;;;4.40;;
6249;SDS011;3158;52.148;11.568;2022-12-07T07:02:43;4.57;;;4.15;;
6249;SDS011;3158;52.148;11.568;2022-12-07T07:07:44;5.28;;;3.72;;
6249;SDS011;3158;52.148;11.568;2022-12-07T07:12:45;3.90;;;3.60;;
6249;SDS011;3158;52.148;11.568;2022-12-07T07:17:46;3.20;;;2.97;;
6249;SDS011;3158;52.148;11.568;2022-12-07T07:22:48;3.45;;;2.92;;
6249;SDS011;3158;52.148;11.568;2022-12-07T07:27:49;4.93;;;3.45;;
6249;SDS011;3158;52.148;11.568;2022-12-07T07:32:50;4.82;;;3.05;;
6249;SDS011;3158;52.148;11.568;2022-12-07T07:37:51;4.22;;;3.75;;
6249;SDS011;3158;52.148;11.568;2022-12-07T07:42:53;4.88;;;3.17;;
6249;SDS011;3158;52.148;11.568;2022-12-07T07:47:54;5.28;;;4.15;;
6249;SDS011;3158;52.148;11.568;2022-12-07T07:52:56;5.70;;;3.67;;
6249;SDS011;3158;52.148;11.568;2022-12-07T07:57:57;3.58;;;3.38;;
6249;SDS011;3158;52.148;11.568;2022-12-07T08:02:58;6.53;;;3.72;;
6249;SDS011;3158;52.148;11.568;2022-12-07T08:07:59;4.55;;;3.15;;
6249;SDS011;3158;52.148;11.568;2022-12-07T08:13:00;3.65;;;3.00;;
6249;SDS011;3158;52.148;11.568;2022-12-07T08:18:11;6.13;;;4.00;;
6249;SDS011;3158;52.148;11.568;2022-12-07T08:23:12;4.32;;;3.92;;
6249;SDS011;3158;52.148;11.568;2022-12-07T08:28:13;6.60;;;3.95;;
6249;SDS011;3158;52.148;11.568;2022-12-07T08:33:14;4.82;;;3.88;;
6249;SDS011;3158;52.148;11.568;2022-12-07T08:38:15;5.07;;;3.90;;
6249;SDS011;3158;52.148;11.568;2022-12-07T08:43:16;5.13;;;4.55;;
6249;SDS011;3158;52.148;11.568;2022-12-07T08:48:18;3.50;;;3.00;;
6249;SDS011;3158;52.148;11.568;2022-12-07T08:53:22;1.85;;;1.73;;
6249;SDS011;3158;52.148;11.568;2022-12-07T08:58:23;1.40;;;1.40;;
6249;SDS011;3158;52.148;11.568;2022-12-07T09:03:24;1.25;;;1.25;;
6249;SDS011;3158;52.148;11.568;2022-12-07T09:08:26;4.68;;;1.77;;
6249;SDS011;3158;52.148;11.568;2022-12-07T09:13:29;1.75;;;1.70;;
6249;SDS011;3158;52.148;11.568;2022-12-07T09:18:31;2.10;;;2.00;;
6249;SDS011;3158;52.148;11.568;2022-12-07T09:23:32;3.88;;;2.35;;
6249;SDS011;3158;52.148;11.568;2022-12-07T09:28:33;2.22;;;2.10;;
6249;SDS011;3158;52.148;11.568;2022-12-07T09:33:34;2.13;;;1.90;;
6249;SDS011;3158;52.148;11.568;2022-12-07T09:38:35;3.38;;;1.65;;
6249;SDS011;3158;52.148;11.568;2022-12-07T09:43:36;1.95;;;1.75;;
6249;SDS011;3158;52.148;11.568;2022-12-07T09:48:40;2.35;;;2.20;;
6249;SDS011;3158;52.148;11.568;2022-12-07T09:53:42;4.47;;;1.98;;
6249;SDS011;3158;52.148;11.568;2022-12-07T09:58:44;2.67;;;2.05;;
6249;SDS011;3158;52.148;11.568;2022-12-07T10:08:50;5.25;;;1.77;;
6249;SDS011;3158;52.148;11.568;2022-12-07T10:13:51;2.33;;;1.77;;
6249;SDS011;3158;52.148;11.568;2022-12-07T10:18:54;2.28;;;2.08;;
6249;SDS011;3158;52.148;11.568;2022-12-07T10:24:05;2.40;;;2.20;;
6249;SDS011;3158;52.148;11.568;2022-12-07T10:29:20;2.75;;;1.70;;
6249;SDS011;3158;52.148;11.568;2022-12-07T10:34:26;1.83;;;1.30;;
6249;SDS011;3158;52.148;11.568;2022-12-07T10:39:28;2.78;;;1.73;;
6249;SDS011;3158;52.148;11.568;2022-12-07T10:44:32;2.13;;;1.95;;
6249;SDS011;3158;52.148;11.568;2022-12-07T10:49:44;1.40;;;1.38;;
6249;SDS011;3158;52.148;11.568;2022-12-07T11:15:26;2.85;;;1.23;;
6249;SDS011;3158;52.148;11.568;2022-12-07T11:25:47;3.80;;;1.30;;
6249;SDS011;3158;52.148;11.568;2022-12-07T11:31:03;1.48;;;1.38;;
6249;SDS011;3158;52.148;11.568;2022-12-07T11:41:21;5.00;;;1.67;;
6249;SDS011;3158;52.148;11.568;2022-12-07T11:46:25;1.75;;;1.23;;
6249;SDS011;3158;52.148;11.568;2022-12-07T11:51:26;1.60;;;1.50;;
6249;SDS011;3158;52.148;11.568;2022-12-07T11:56:29;1.17;;;1.15;;
6249;SDS011;3158;52.148;11.568;2022-12-07T12:06:36;2.03;;;0.57;;
6249;SDS011;3158;52.148;11.568;2022-12-07T12:22:17;1.38;;;0.75;;
6249;SDS011;3158;52.148;11.568;2022-12-07T12:27:26;2.35;;;0.77;;
6249;SDS011;3158;52.148;11.568;2022-12-07T12:32:42;1.08;;;0.77;;
6249;SDS011;3158;52.148;11.568;2022-12-07T12:37:44;0.45;;;0.45;;
6249;SDS011;3158;52.148;11.568;2022-12-07T12:42:49;5.38;;;0.88;;
6249;SDS011;3158;52.148;11.568;2022-12-07T12:47:54;1.75;;;0.47;;
6249;SDS011;3158;52.148;11.568;2022-12-07T12:53:00;1.85;;;0.52;;
6249;SDS011;3158;52.148;11.568;2022-12-07T12:58:21;3.65;;;1.23;;
6249;SDS011;3158;52.148;11.568;2022-12-07T13:03:26;1.98;;;0.95;;
6249;SDS011;3158;52.148;11.568;2022-12-07T13:08:28;2.22;;;0.40;;
6249;SDS011;3158;52.148;11.568;2022-12-07T13:13:30;5.05;;;2.22;;
6249;SDS011;3158;52.148;11.568;2022-12-07T13:28:36;0.35;;;0.22;;
6249;SDS011;3158;52.148;11.568;2022-12-07T13:33:40;0.22;;;0.22;;
6249;SDS011;3158;52.148;11.568;2022-12-07T13:38:48;0.40;;;0.40;;
6249;SDS011;3158;52.148;11.568;2022-12-07T13:43:51;1.73;;;0.95;;
6249;SDS011;3158;52.148;11.568;2022-12-07T13:48:52;1.45;;;0.60;;
6249;SDS011;3158;52.148;11.568;2022-12-07T13:53:59;0.95;;;0.60;;
6249;SDS011;3158;52.148;11.568;2022-12-07T13:59:00;0.80;;;0.80;;
6249;SDS011;3158;52.148;11.568;2022-12-07T14:09:25;1.65;;;1.30;;
6249;SDS011;3158;52.148;11.568;2022-12-07T14:14:29;3.40;;;1.00;;
6249;SDS011;3158;52.148;11.568;2022-12-07T14:24:44;5.15;;;1.02;;
6249;SDS011;3158;52.148;11.568;2022-12-07T14:29:45;3.88;;;1.55;;
6249;SDS011;3158;52.148;11.568;2022-12-07T14:35:21;3.80;;;1.20;;
6249;SDS011;3158;52.148;11.568;2022-12-07T14:40:16;1.02;;;1.02;;
6249;SDS011;3158;52.148;11.568;2022-12-07T14:45:18;0.85;;;0.85;;
6249;SDS011;3158;52.148;11.568;2022-12-07T14:50:20;0.70;;;0.63;;
6249;SDS011;3158;52.148;11.568;2022-12-07T14:55:26;2.30;;;1.70;;
6249;SDS011;3158;52.148;11.568;2022-12-07T15:00:28;0.82;;;0.45;;
6249;SDS011;3158;52.148;11.568;2022-12-07T15:05:29;0.40;;;0.40;;
6249;SDS011;3158;52.148;11.568;2022-12-07T15:10:31;1.50;;;0.73;;
6249;SDS011;3158;52.148;11.568;2022-12-07T15:15:33;0.43;;;0.43;;
6249;SDS011;3158;52.148;11.568;2022-12-07T15:20:34;1.50;;;0.80;;
6249;SDS011;3158;52.148;11.568;2022-12-07T15:25:35;2.38;;;1.23;;
6249;SDS011;3158;52.148;11.568;2022-12-07T15:30:37;1.80;;;1.67;;
6249;SDS011;3158;52.148;11.568;2022-12-07T15:35:47;28.85;;;14.25;;
6249;SDS011;3158;52.148;11.568;2022-12-07T15:40:48;44.47;;;20.52;;
6249;SDS011;3158;52.148;11.568;2022-12-07T15:45:49;7.72;;;5.57;;
6249;SDS011;3158;52.148;11.568;2022-12-07T15:50:50;4.95;;;4.43;;
6249;SDS011;3158;52.148;11.568;2022-12-07T15:55:52;4.32;;;3.78;;
6249;SDS011;3158;52.148;11.568;2022-12-07T16:00:53;23.20;;;12.75;;
6249;SDS011;3158;52.148;11.568;2022-12-07T16:05:54;0.95;;;0.95;;
6249;SDS011;3158;52.148;11.568;2022-12-07T16:10:55;0.20;;;0.20;;
6249;SDS011;3158;52.148;11.568;2022-12-07T16:15:56;0.20;;;0.20;;
6249;SDS011;3158;52.148;11.568;2022-12-07T16:20:57;1.45;;;0.50;;
6249;SDS011;3158;52.148;11.568;2022-12-07T16:26:08;0.38;;;0.17;;
6249;SDS011;3158;52.148;11.568;2022-12-07T16:31:13;0.25;;;0.20;;
6249;SDS011;3158;52.148;11.568;2022-12-07T16:36:15;0.75;;;0.40;;
6249;SDS011;3158;52.148;11.568;2022-12-07T16:41:17;0.15;;;0.15;;
6249;SDS011;3158;52.148;11.568;2022-12-07T16:46:18;3.10;;;0.43;;
6249;SDS011;3158;52.148;11.568;2022-12-07T16:51:19;0.50;;;0.40;;
6249;SDS011;3158;52.148;11.568;2022-12-07T16:56:20;3.13;;;0.20;;
6249;SDS011;3158;52.148;11.568;2022-12-07T17:01:21;0.65;;;0.10;;
6249;SDS011;3158;52.148;11.568;2022-12-07T17:06:24;1.17;;;0.40;;
6249;SDS011;3158;52.148;11.568;2022-12-07T17:11:27;0.13;;;0.13;;
6249;SDS011;3158;52.148;11.568;2022-12-07T17:16:28;0.38;;;0.38;;
6249;SDS011;3158;52.148;11.568;2022-12-07T17:21:29;0.20;;;0.20;;
6249;SDS011;3158;52.148;11.568;2022-12-07T17:26:31;0.63;;;0.25;;
6249;SDS011;3158;52.148;11.568;2022-12-07T17:31:32;1.20;;;0.20;;
6249;SDS011;3158;52.148;11.568;2022-12-07T17:36:33;2.53;;;0.30;;
6249;SDS011;3158;52.148;11.568;2022-12-07T17:41:35;3.53;;;1.45;;
6249;SDS011;3158;52.148;11.568;2022-12-07T17:46:55;1.45;;;0.15;;
6249;SDS011;3158;52.148;11.568;2022-12-07T17:52:01;3.70;;;0.77;;
6249;SDS011;3158;52.148;11.568;2022-12-07T17:57:21;0.30;;;0.30;;
6249;SDS011;3158;52.148;11.568;2022-12-07T18:02:22;0.50;;;0.43;;
6249;SDS011;3158;52.148;11.568;2022-12-07T18:07:23;1.35;;;0.50;;
6249;SDS011;3158;52.148;11.568;2022-12-07T18:12:24;2.10;;;1.42;;
6249;SDS011;3158;52.148;11.568;2022-12-07T18:17:25;0.73;;;0.63;;
6249;SDS011;3158;52.148;11.568;2022-12-07T18:22:26;0.40;;;0.40;;
6249;SDS011;3158;52.148;11.568;2022-12-07T18:27:27;0.70;;;0.70;;
6249;SDS011;3158;52.148;11.568;2022-12-07T18:32:28;0.70;;;0.70;;
6249;SDS011;3158;52.148;11.568;2022-12-07T18:37:30;0.40;;;0.30;;
6249;SDS011;3158;52.148;11.568;2022-12-07T18:42:32;0.63;;;0.60;;
6249;SDS011;3158;52.148;11.568;2022-12-07T18:47:33;0.60;;;0.60;;
6249;SDS011;3158;52.148;11.568;2022-12-07T18:52:34;0.77;;;0.77;;
6249;SDS011;3158;52.148;11.568;2022-12-07T18:57:35;2.38;;;1.33;;
6249;SDS011;3158;52.148;11.568;2022-12-07T19:02:36;1.00;;;1.00;;
6249;SDS011;3158;52.148;11.568;2022-12-07T19:07:37;3.05;;;1.60;;
6249;SDS011;3158;52.148;11.568;2022-12-07T19:12:39;2.53;;;2.33;;
6249;SDS011;3158;52.148;11.568;2022-12-07T19:17:40;2.20;;;1.90;;
6249;SDS011;3158;52.148;11.568;2022-12-07T19:22:41;4.13;;;1.83;;
6249;SDS011;3158;52.148;11.568;2022-12-07T19:27:43;4.35;;;2.25;;
6249;SDS011;3158;52.148;11.568;2022-12-07T19:32:44;1.85;;;1.75;;
6249;SDS011;3158;52.148;11.568;2022-12-07T19:37:45;4.38;;;2.60;;
6249;SDS011;3158;52.148;11.568;2022-12-07T19:42:46;2.47;;;2.25;;
6249;SDS011;3158;52.148;11.568;2022-12-07T19:47:47;5.40;;;2.25;;
6249;SDS011;3158;52.148;11.568;2022-12-07T19:52:48;3.20;;;2.95;;
6249;SDS011;3158;52.148;11.568;2022-12-07T19:57:49;3.30;;;3.05;;
6249;SDS011;3158;52.148;11.568;2022-12-07T20:02:50;2.88;;;2.67;;
6249;SDS011;3158;52.148;11.568;2022-12-07T20:07:51;3.03;;;2.70;;
6249;SDS011;3158;52.148;11.568;2022-12-07T20:12:52;4.47;;;3.03;;
6249;SDS011;3158;52.148;11.568;2022-12-07T20:18:12;3.42;;;2.70;;
6249;SDS011;3158;52.148;11.568;2022-12-07T20:23:13;2.13;;;1.90;;
6249;SDS011;3158;52.148;11.568;2022-12-07T20:28:14;1.75;;;1.15;;
6249;SDS011;3158;52.148;11.568;2022-12-07T20:33:15;2.17;;;0.88;;
6249;SDS011;3158;52.148;11.568;2022-12-07T20:38:17;0.88;;;0.88;;
6249;SDS011;3158;52.148;11.568;2022-12-07T20:43:18;1.35;;;0.68;;
6249;SDS011;3158;52.148;11.568;2022-12-07T20:48:19;1.23;;;0.90;;
6249;SDS011;3158;52.148;11.568;2022-12-07T20:53:20;1.65;;;1.20;;
6249;SDS011;3158;52.148;11.568;2022-12-07T20:58:21;0.82;;;0.82;;
6249;SDS011;3158;52.148;11.568;2022-12-07T21:03:22;4.07;;;0.80;;
6249;SDS011;3158;52.148;11.568;2022-12-07T21:08:23;0.70;;;0.45;;
6249;SDS011;3158;52.148;11.568;2022-12-07T21:13:25;0.50;;;0.50;;
6249;SDS011;3158;52.148;11.568;2022-12-07T21:18:28;2.05;;;0.40;;
6249;SDS011;3158;52.148;11.568;2022-12-07T21:23:29;1.50;;;0.60;;
6249;SDS011;3158;52.148;11.568;2022-12-07T21:28:30;3.13;;;0.85;;
6249;SDS011;3158;52.148;11.568;2022-12-07T21:33:31;1.40;;;0.43;;
6249;SDS011;3158;52.148;11.568;2022-12-07T21:38:33;0.75;;;0.47;;
6249;SDS011;3158;52.148;11.568;2022-12-07T21:43:34;1.40;;;0.30;;
6249;SDS011;3158;52.148;11.568;2022-12-07T21:48:35;3.63;;;0.52;;
6249;SDS011;3158;52.148;11.568;2022-12-07T21:53:37;0.60;;;0.50;;
6249;SDS011;3158;52.148;11.568;2022-12-07T21:58:38;2.65;;;0.80;;
6249;SDS011;3158;52.148;11.568;2022-12-07T22:03:39;1.73;;;1.20;;
6249;SDS011;3158;52.148;11.568;2022-12-07T22:08:41;1.40;;;1.30;;
6249;SDS011;3158;52.148;11.568;2022-12-07T22:13:43;2.83;;;1.83;;
6249;SDS011;3158;52.148;11.568;2022-12-07T22:19:03;1.55;;;1.45;;
6249;SDS011;3158;52.148;11.568;2022-12-07T22:24:04;1.50;;;1.40;;
6249;SDS011;3158;52.148;11.568;2022-12-07T22:29:05;3.05;;;1.73;;
6249;SDS011;3158;52.148;11.568;2022-12-07T22:34:07;5.00;;;1.85;;
6249;SDS011;3158;52.148;11.568;2022-12-07T22:39:12;2.58;;;2.38;;
6249;SDS011;3158;52.148;11.568;2022-12-07T22:44:13;3.17;;;2.22;;
6249;SDS011;3158;52.148;11.568;2022-12-07T22:49:14;2.17;;;2.08;;
6249;SDS011;3158;52.148;11.568;2022-12-07T22:54:15;2.13;;;1.75;;
6249;SDS011;3158;52.148;11.568;2022-12-07T22:59:16;8.57;;;2.08;;
6249;SDS011;3158;52.148;11.568;2022-12-07T23:04:18;5.88;;;2.50;;
6249;SDS011;3158;52.148;11.568;2022-12-07T23:09:19;2.03;;;1.92;;
6249;SDS011;3158;52.148;11.568;2022-12-07T23:14:25;2.42;;;1.77;;
6249;SDS011;3158;52.148;11.568;2022-12-07T23:19:26;4.75;;;2.70;;
6249;SDS011;3158;52.148;11.568;2022-12-07T23:24:27;3.25;;;2.90;;
6249;SDS011;3158;52.148;11.568;2022-12-07T23:29:29;3.50;;;2.65;;
6249;SDS011;3158;52.148;11.568;2022-12-07T23:34:30;4.45;;;3.63;;
6249;SDS011;3158;52.148;11.568;2022-12-07T23:39:31;5.00;;;3.38;;
6249;SDS011;3158;52.148;11.568;2022-12-07T23:44:32;6.15;;;3.35;;
6249;SDS011;3158;52.148;11.568;2022-12-07T23:49:33;6.95;;;4.28;;
6249;SDS011;3158;52.148;11.568;2022-12-07T23:54:34;3.60;;;2.85;;
6249;SDS011;3158;52.148;11.568;2022-12-07T23:59:36;3.35;;;2.70;;
